createdAt,value
2023-02-05T00:00:10.837Z,3.10
2023-02-05T00:02:38.388Z,3.07
2023-02-05T00:05:06.616Z,3.57
2023-02-05T00:07:34.306Z,3.33
2023-02-05T00:10:01.855Z,3.23
2023-02-05T00:12:29.406Z,3.00
2023-02-05T00:14:58.348Z,4.87
2023-02-05T00:17:25.992Z,3.33
2023-02-05T00:19:53.596Z,3.50
2023-02-05T00:22:21.143Z,3.90
2023-02-05T00:24:48.737Z,3.20
2023-02-05T00:27:16.365Z,3.23
2023-02-05T00:29:43.964Z,2.70
2023-02-05T00:32:12.905Z,3.20
2023-02-05T00:34:40.551Z,2.80
2023-02-05T00:37:08.155Z,3.10
2023-02-05T00:39:35.873Z,3.77
2023-02-05T00:42:03.565Z,3.70
2023-02-05T00:44:31.139Z,3.40
2023-02-05T00:46:58.717Z,3.50
2023-02-05T00:49:27.852Z,3.37
2023-02-05T00:51:55.502Z,3.20
2023-02-05T00:54:23.152Z,3.30
2023-02-05T00:56:50.693Z,2.97
2023-02-05T00:59:22.671Z,3.33
2023-02-05T01:01:53.832Z,3.03
2023-02-05T01:04:21.607Z,3.97
2023-02-05T01:06:50.603Z,3.00
2023-02-05T01:09:18.222Z,3.20
2023-02-05T01:11:45.811Z,4.10
2023-02-05T01:14:13.492Z,3.90
2023-02-05T01:16:41.204Z,2.67
2023-02-05T01:19:08.861Z,2.60
2023-02-05T01:21:36.530Z,3.40
2023-02-05T01:24:06.530Z,4.13
2023-02-05T01:26:34.146Z,3.23
2023-02-05T01:29:01.842Z,3.20
2023-02-05T01:31:29.953Z,3.60
2023-02-05T01:33:57.584Z,4.30
2023-02-05T01:36:25.231Z,4.40
2023-02-05T01:38:54.317Z,5.00
2023-02-05T01:41:23.343Z,4.70
2023-02-05T01:44:07.827Z,4.60
2023-02-05T01:46:36.342Z,4.47
2023-02-05T01:49:04.904Z,4.87
2023-02-05T01:51:33.115Z,4.70
2023-02-05T01:54:00.973Z,4.63
2023-02-05T01:56:32.872Z,4.70
2023-02-05T01:59:02.168Z,4.87
2023-02-05T02:01:29.665Z,4.20
2023-02-05T02:03:58.073Z,3.93
2023-02-05T02:06:25.608Z,3.80
2023-02-05T02:08:53.301Z,3.17
2023-02-05T02:11:22.909Z,3.90
2023-02-05T02:13:52.813Z,2.93
2023-02-05T02:16:20.871Z,3.20
2023-02-05T02:18:48.690Z,2.87
2023-02-05T02:21:53.821Z,3.33
2023-02-05T02:24:31.519Z,3.80
2023-02-05T02:27:14.924Z,3.30
2023-02-05T02:29:48.311Z,2.90
2023-02-05T02:32:20.012Z,4.40
2023-02-05T02:34:50.295Z,3.20
2023-02-05T02:37:22.409Z,3.67
2023-02-05T02:39:56.799Z,3.13
2023-02-05T02:42:26.522Z,3.77
2023-02-05T02:44:58.092Z,3.30
2023-02-05T02:47:30.087Z,3.53
2023-02-05T02:50:00.614Z,2.87
2023-02-05T02:52:28.661Z,4.03
2023-02-05T02:55:00.554Z,3.87
2023-02-05T02:57:30.208Z,3.80
2023-02-05T03:00:00.865Z,4.13
2023-02-05T03:02:30.226Z,3.80
2023-02-05T03:04:59.751Z,3.90
2023-02-05T03:07:29.387Z,3.20
2023-02-05T03:10:01.066Z,4.53
2023-02-05T03:12:28.685Z,4.10
2023-02-05T03:14:56.907Z,3.90
2023-02-05T03:17:26.486Z,3.73
2023-02-05T03:19:58.846Z,3.70
2023-02-05T03:22:26.360Z,3.73
2023-02-05T03:24:54.453Z,3.73
2023-02-05T03:27:22.357Z,3.50
2023-02-05T03:29:50.456Z,3.50
2023-02-05T03:32:27.643Z,3.73
2023-02-05T03:35:02.936Z,4.07
2023-02-05T03:37:38.692Z,4.40
2023-02-05T03:40:12.060Z,3.00
2023-02-05T03:42:46.767Z,3.30
2023-02-05T03:45:26.144Z,3.60
2023-02-05T03:48:06.304Z,3.57
2023-02-05T03:50:38.994Z,4.33
2023-02-05T03:53:09.949Z,3.47
2023-02-05T03:55:40.167Z,3.37
2023-02-05T03:58:11.328Z,3.03
2023-02-05T04:00:39.261Z,4.00
2023-02-05T04:03:08.111Z,3.57
2023-02-05T04:05:35.988Z,3.40
2023-02-05T04:08:03.741Z,3.60
2023-02-05T04:10:31.207Z,4.20
2023-02-05T04:13:19.804Z,2.97
2023-02-05T04:15:49.382Z,3.67
2023-02-05T04:18:18.423Z,3.90
2023-02-05T04:20:45.910Z,2.90
2023-02-05T04:23:13.414Z,4.10
2023-02-05T04:25:41.469Z,4.37
2023-02-05T04:28:10.413Z,3.27
2023-02-05T04:30:38.084Z,3.17
2023-02-05T04:33:05.576Z,3.73
2023-02-05T04:35:34.687Z,3.23
2023-02-05T04:38:02.310Z,3.23
2023-02-05T04:40:29.904Z,3.50
2023-02-05T04:42:57.377Z,3.87
2023-02-05T04:45:26.840Z,3.80
2023-02-05T04:47:54.300Z,2.97
2023-02-05T04:50:21.747Z,4.40
2023-02-05T04:52:50.566Z,3.90
2023-02-05T04:55:18.030Z,4.20
2023-02-05T04:57:45.462Z,3.13
2023-02-05T05:00:14.250Z,2.97
2023-02-05T05:02:41.738Z,3.63
2023-02-05T05:05:09.434Z,3.30
2023-02-05T05:07:36.868Z,3.83
2023-02-05T05:10:08.070Z,3.87
2023-02-05T05:12:35.879Z,3.27
2023-02-05T05:15:03.587Z,3.00
2023-02-05T05:17:31.193Z,2.70
2023-02-05T05:19:58.629Z,3.13
2023-02-05T05:22:26.060Z,3.20
2023-02-05T05:24:53.628Z,3.90
2023-02-05T05:27:24.205Z,3.63
2023-02-05T05:29:51.673Z,3.20
2023-02-05T05:32:19.184Z,3.57
2023-02-05T05:34:46.686Z,2.90
2023-02-05T05:37:14.134Z,3.60
2023-02-05T05:39:59.132Z,3.70
2023-02-05T05:42:45.695Z,3.70
2023-02-05T05:45:13.153Z,3.40
2023-02-05T05:47:40.602Z,4.37
2023-02-05T05:50:08.611Z,3.80
2023-02-05T05:52:36.051Z,2.83
2023-02-05T05:55:03.507Z,3.43
2023-02-05T05:57:32.315Z,3.87
2023-02-05T05:59:59.772Z,3.00
2023-02-05T06:02:27.389Z,4.07
2023-02-05T06:04:54.903Z,4.13
2023-02-05T06:07:22.353Z,4.00
2023-02-05T06:09:50.071Z,3.90
2023-02-05T06:12:17.509Z,3.50
2023-02-05T06:14:46.275Z,4.13
2023-02-05T06:17:13.758Z,4.00
2023-02-05T06:19:41.219Z,3.87
2023-02-05T06:22:08.670Z,3.70
2023-02-05T06:24:36.142Z,3.43
2023-02-05T06:27:03.771Z,4.07
2023-02-05T06:29:31.252Z,3.90
2023-02-05T06:32:00.191Z,4.40
2023-02-05T06:34:27.712Z,3.67
2023-02-05T06:36:55.705Z,3.93
2023-02-05T06:39:25.161Z,3.90
2023-02-05T06:41:52.785Z,4.40
2023-02-05T06:44:20.261Z,4.10
2023-02-05T06:46:47.910Z,3.80
2023-02-05T06:49:16.763Z,20.00
2023-02-05T06:51:44.201Z,10.80
2023-02-05T06:54:11.978Z,8.60
2023-02-05T06:56:39.469Z,7.87
2023-02-05T06:59:06.914Z,5.83
2023-02-05T07:01:34.411Z,5.33
2023-02-05T07:04:01.981Z,4.43
2023-02-05T07:06:30.811Z,5.07
2023-02-05T07:08:59.289Z,7.00
2023-02-05T07:11:26.859Z,9.40
2023-02-05T07:13:54.361Z,5.57
2023-02-05T07:16:21.929Z,7.37
2023-02-05T07:18:49.575Z,7.80
2023-02-05T07:21:17.782Z,7.10
2023-02-05T07:23:46.683Z,6.17
2023-02-05T07:26:16.927Z,6.90
2023-02-05T07:28:45.036Z,7.37
2023-02-05T07:31:15.097Z,6.50
2023-02-05T07:33:43.320Z,6.67
2023-02-05T07:36:13.365Z,7.00
2023-02-05T07:38:40.818Z,6.43
2023-02-05T07:41:10.776Z,7.50
2023-02-05T07:43:39.400Z,6.37
2023-02-05T07:46:08.918Z,7.17
2023-02-05T07:48:36.778Z,5.67
2023-02-05T07:51:04.545Z,7.80
2023-02-05T07:53:32.100Z,6.93
2023-02-05T07:56:03.486Z,8.60
2023-02-05T07:58:32.358Z,7.27
2023-02-05T08:01:01.847Z,8.57
2023-02-05T08:03:29.437Z,7.50
2023-02-05T08:05:56.923Z,7.30
2023-02-05T08:08:25.080Z,6.67
2023-02-05T08:10:57.336Z,7.93
2023-02-05T08:13:24.832Z,7.90
2023-02-05T08:15:53.722Z,8.87
2023-02-05T08:18:21.246Z,8.60
2023-02-05T08:20:48.909Z,8.67
2023-02-05T08:23:16.403Z,7.97
2023-02-05T08:25:43.867Z,8.70
2023-02-05T08:28:11.359Z,7.90
2023-02-05T08:30:39.419Z,9.23
2023-02-05T08:33:08.221Z,8.03
2023-02-05T08:35:35.958Z,7.60
2023-02-05T08:38:03.632Z,8.50
2023-02-05T08:40:31.210Z,9.30
2023-02-05T08:43:00.248Z,10.80
2023-02-05T08:45:28.306Z,10.03
2023-02-05T08:47:56.863Z,10.60
2023-02-05T08:50:26.402Z,10.07
2023-02-05T08:52:53.945Z,9.00
2023-02-05T08:55:21.508Z,8.93
2023-02-05T08:57:49.081Z,8.90
2023-02-05T09:00:17.279Z,9.60
2023-02-05T09:02:44.864Z,9.60
2023-02-05T09:05:12.376Z,9.40
2023-02-05T09:07:42.094Z,10.10
2023-02-05T09:10:10.393Z,9.80
2023-02-05T09:12:38.297Z,9.60
2023-02-05T09:15:06.207Z,10.00
2023-02-05T09:17:33.692Z,9.93
2023-02-05T09:20:01.193Z,9.70
2023-02-05T09:22:28.680Z,9.07
2023-02-05T09:24:57.474Z,9.00
2023-02-05T09:27:24.930Z,9.73
2023-02-05T09:29:52.439Z,10.63
2023-02-05T09:32:19.895Z,9.60
2023-02-05T09:34:48.998Z,10.20
2023-02-05T09:37:16.850Z,10.63
2023-02-05T09:40:18.949Z,10.20
2023-02-05T09:42:37.752Z,8.90
2023-02-05T09:45:14.548Z,9.20
2023-02-05T09:47:47.339Z,10.50
2023-02-05T09:50:18.281Z,12.03
2023-02-05T09:52:50.978Z,11.17
2023-02-05T09:55:21.810Z,11.10
2023-02-05T09:57:52.301Z,13.00
2023-02-05T10:00:22.434Z,10.20
2023-02-05T10:02:59.971Z,11.67
2023-02-05T10:05:34.023Z,11.30
2023-02-05T10:08:08.059Z,10.83
2023-02-05T10:10:37.902Z,10.63
2023-02-05T10:13:28.822Z,9.97
2023-02-05T10:16:25.612Z,9.90
2023-02-05T10:19:09.276Z,13.77
2023-02-05T10:21:49.021Z,10.30
2023-02-05T10:24:33.275Z,11.60
2023-02-05T10:27:05.590Z,11.40
2023-02-05T10:29:39.725Z,11.47
2023-02-05T10:32:16.119Z,11.70
2023-02-05T10:34:51.585Z,13.73
2023-02-05T10:37:20.959Z,12.57
2023-02-05T10:39:49.978Z,11.43
2023-02-05T10:42:25.603Z,12.60
2023-02-05T10:45:02.067Z,13.10
2023-02-05T10:47:41.537Z,12.20
2023-02-05T10:50:17.869Z,12.00
2023-02-05T10:52:45.335Z,12.50
2023-02-05T10:55:13.369Z,12.83
2023-02-05T10:57:41.139Z,13.17
2023-02-05T11:00:16.193Z,11.40
2023-02-05T11:02:46.012Z,11.57
2023-02-05T11:05:20.294Z,13.00
2023-02-05T11:07:49.924Z,12.53
2023-02-05T11:10:20.390Z,11.30
2023-02-05T11:12:50.209Z,11.13
2023-02-05T11:15:24.673Z,12.50
2023-02-05T11:17:53.581Z,12.50
2023-02-05T11:20:29.102Z,11.37
2023-02-05T11:23:08.371Z,11.97
2023-02-05T11:25:36.165Z,12.47
2023-02-05T11:28:05.511Z,12.50
2023-02-05T11:30:52.146Z,15.03
2023-02-05T11:33:28.882Z,12.17
2023-02-05T11:35:58.733Z,14.13
2023-02-05T11:38:31.523Z,14.43
2023-02-05T11:41:00.272Z,15.00
2023-02-05T11:43:31.489Z,13.63
2023-02-05T11:46:02.000Z,15.87
2023-02-05T11:48:35.926Z,13.70
2023-02-05T11:51:05.077Z,14.47
2023-02-05T11:53:33.872Z,14.70
2023-02-05T11:56:04.891Z,14.73
2023-02-05T11:58:37.256Z,14.07
2023-02-05T12:01:21.231Z,13.53
2023-02-05T12:03:59.395Z,15.60
2023-02-05T12:06:31.771Z,15.17
2023-02-05T12:08:59.270Z,13.33
2023-02-05T12:11:54.344Z,15.63
2023-02-05T12:14:27.450Z,13.57
2023-02-05T12:17:01.344Z,15.23
2023-02-05T12:19:34.046Z,15.27
2023-02-05T12:22:07.268Z,14.03
2023-02-05T12:24:48.975Z,14.10
2023-02-05T12:27:31.490Z,14.63
2023-02-05T12:30:09.675Z,14.00
2023-02-05T12:32:42.736Z,13.27
2023-02-05T12:35:23.332Z,13.83
2023-02-05T12:37:54.917Z,13.43
2023-02-05T12:40:34.208Z,14.30
2023-02-05T12:43:07.773Z,12.70
2023-02-05T12:45:44.889Z,12.00
2023-02-05T12:48:24.217Z,13.73
2023-02-05T12:51:04.393Z,12.53
2023-02-05T12:53:41.076Z,13.77
2023-02-05T12:56:36.974Z,14.97
2023-02-05T12:59:08.281Z,14.30
2023-02-05T13:01:41.759Z,14.47
2023-02-05T13:04:20.495Z,15.83
2023-02-05T13:10:19.545Z,14.80
2023-02-05T13:12:50.616Z,14.37
2023-02-05T13:15:20.977Z,15.50
2023-02-05T13:17:56.124Z,17.60
2023-02-05T13:20:49.563Z,15.40
2023-02-05T13:23:35.826Z,17.23
2023-02-05T13:26:22.392Z,22.83
2023-02-05T13:28:53.088Z,15.23
2023-02-05T13:31:27.152Z,20.53
2023-02-05T13:33:56.278Z,16.43
2023-02-05T13:37:15.057Z,15.70
2023-02-05T13:39:55.633Z,14.33
2023-02-05T13:42:53.556Z,18.53
2023-02-05T13:45:46.712Z,15.17
2023-02-05T13:48:34.534Z,11.50
2023-02-05T13:51:31.880Z,11.67
2023-02-05T13:54:15.160Z,10.90
2023-02-05T13:56:48.958Z,10.13
2023-02-05T13:59:19.336Z,11.23
2023-02-05T14:01:52.178Z,10.63
2023-02-05T14:04:22.171Z,8.37
2023-02-05T14:06:57.245Z,8.70
2023-02-05T14:09:34.335Z,7.87
2023-02-05T14:12:04.599Z,8.93
2023-02-05T14:14:34.868Z,8.60
2023-02-05T14:17:04.204Z,8.93
2023-02-05T14:19:56.859Z,8.53
2023-02-05T14:22:36.798Z,9.20
2023-02-05T14:25:10.628Z,9.47
2023-02-05T14:27:55.450Z,18.80
2023-02-05T14:30:51.121Z,10.60
2023-02-05T14:33:38.591Z,9.77
2023-02-05T14:36:33.659Z,9.00
2023-02-05T14:39:04.271Z,9.10
2023-02-05T14:41:46.847Z,9.57
2023-02-05T14:44:19.809Z,8.33
2023-02-05T14:46:56.993Z,9.67
2023-02-05T14:49:26.604Z,9.97
2023-02-05T14:51:59.290Z,9.83
2023-02-05T14:54:28.966Z,17.47
2023-02-05T14:57:12.746Z,11.53
2023-02-05T14:59:43.724Z,10.90
2023-02-05T15:02:49.123Z,21.30
2023-02-05T15:05:18.571Z,16.73
2023-02-05T15:07:47.050Z,13.30
2023-02-05T15:10:19.314Z,11.13
2023-02-05T15:13:02.814Z,10.60
2023-02-05T15:15:33.505Z,9.50
2023-02-05T15:18:16.157Z,11.10
2023-02-05T15:20:47.372Z,11.93
2023-02-05T15:23:26.234Z,51.33
2023-02-05T15:25:59.873Z,14.13
2023-02-05T15:28:35.782Z,10.40
2023-02-05T15:31:15.011Z,9.70
2023-02-05T15:33:55.936Z,22.00
2023-02-05T15:36:31.647Z,13.10
2023-02-05T15:39:08.331Z,19.57
2023-02-05T15:41:37.019Z,23.50
2023-02-05T15:44:05.958Z,13.50
2023-02-05T15:46:34.287Z,14.70
2023-02-05T15:49:02.416Z,16.50
2023-02-05T15:51:32.276Z,18.37
2023-02-05T15:54:01.727Z,12.53
2023-02-05T15:56:32.221Z,14.50
2023-02-05T15:59:02.178Z,14.83
2023-02-05T16:01:33.539Z,14.73
2023-02-05T16:04:01.253Z,13.90
2023-02-05T16:06:30.845Z,17.00
2023-02-05T16:08:58.534Z,9.77
2023-02-05T16:11:31.245Z,27.03
2023-02-05T16:14:07.116Z,19.33
2023-02-05T16:16:38.673Z,14.20
2023-02-05T16:19:10.036Z,15.97
2023-02-05T16:21:40.122Z,11.40
2023-02-05T16:24:13.783Z,9.50
2023-02-05T16:26:44.144Z,10.87
2023-02-05T16:29:25.680Z,17.90
2023-02-05T16:32:00.823Z,32.27
2023-02-05T16:34:29.234Z,16.60
2023-02-05T16:37:07.214Z,16.90
2023-02-05T16:39:39.750Z,11.87
2023-02-05T16:42:09.231Z,15.43
2023-02-05T16:44:39.076Z,13.87
2023-02-05T16:47:14.235Z,14.20
2023-02-05T16:49:43.109Z,25.67
2023-02-05T16:52:28.471Z,19.00
2023-02-05T16:54:56.254Z,18.27
2023-02-05T16:57:28.343Z,15.27
2023-02-05T16:59:59.489Z,15.17
2023-02-05T17:02:32.216Z,11.33
2023-02-05T17:05:02.416Z,9.80
2023-02-05T17:07:31.590Z,23.23
2023-02-05T17:10:18.180Z,12.63
2023-02-05T17:12:55.182Z,12.27
2023-02-05T17:15:46.417Z,18.83
2023-02-05T17:18:30.841Z,9.57
2023-02-05T17:21:29.701Z,10.23
2023-02-05T17:24:02.007Z,10.90
2023-02-05T17:26:31.478Z,12.87
2023-02-05T17:29:01.380Z,19.63
2023-02-05T17:31:29.496Z,12.60
2023-02-05T17:33:59.506Z,10.13
2023-02-05T17:36:27.710Z,11.20
2023-02-05T17:38:57.662Z,13.20
2023-02-05T17:41:44.843Z,12.57
2023-02-05T17:44:13.480Z,12.33
2023-02-05T17:46:41.477Z,11.47
2023-02-05T17:49:10.523Z,14.53
2023-02-05T17:51:41.715Z,14.20
2023-02-05T17:54:14.020Z,12.80
2023-02-05T17:56:44.340Z,15.07
2023-02-05T17:59:12.686Z,11.07
2023-02-05T18:01:40.563Z,17.63
2023-02-05T18:04:08.534Z,14.37
2023-02-05T18:06:38.667Z,16.77
2023-02-05T18:09:06.921Z,14.47
2023-02-05T18:11:35.111Z,11.10
2023-02-05T18:14:02.662Z,9.67
2023-02-05T18:16:30.581Z,13.20
2023-02-05T18:18:58.303Z,12.43
2023-02-05T18:21:25.885Z,11.93
2023-02-05T18:23:55.136Z,10.37
2023-02-05T18:26:22.819Z,9.97
2023-02-05T18:28:51.256Z,10.17
2023-02-05T18:31:19.038Z,7.37
2023-02-05T18:33:46.676Z,10.33
2023-02-05T18:36:15.292Z,14.67
2023-02-05T18:38:43.970Z,13.30
2023-02-05T18:41:14.808Z,10.70
2023-02-05T18:43:42.949Z,15.80
2023-02-05T18:46:12.056Z,13.87
2023-02-05T18:48:41.053Z,12.60
2023-02-05T18:51:10.185Z,11.20
2023-02-05T18:53:38.951Z,10.03
2023-02-05T18:56:08.652Z,9.77
2023-02-05T18:58:37.772Z,9.27
2023-02-05T19:01:10.389Z,9.80
2023-02-05T19:03:38.903Z,11.77
2023-02-05T19:06:07.051Z,8.80
2023-02-05T19:08:34.776Z,9.10
2023-02-05T19:11:06.870Z,9.07
2023-02-05T19:13:36.852Z,9.10
2023-02-05T19:16:07.590Z,8.77
2023-02-05T19:18:35.572Z,7.33
2023-02-05T19:21:06.674Z,8.20
2023-02-05T19:23:34.783Z,8.97
2023-02-05T19:26:04.491Z,9.47
2023-02-05T19:28:32.766Z,8.53
2023-02-05T19:31:03.776Z,9.50
2023-02-05T19:33:32.987Z,9.10
2023-02-05T19:36:01.041Z,7.37
2023-02-05T19:38:29.246Z,9.10
2023-02-05T19:40:56.974Z,8.10
2023-02-05T19:43:24.567Z,7.40
2023-02-05T19:45:52.267Z,10.60
2023-02-05T19:48:19.787Z,8.47
2023-02-05T19:50:48.712Z,8.47
2023-02-05T19:53:18.399Z,9.20
2023-02-05T19:55:46.161Z,8.73
2023-02-05T19:58:14.681Z,8.73
2023-02-05T20:00:42.782Z,7.77
2023-02-05T20:03:11.484Z,10.30
2023-02-05T20:05:39.084Z,9.77
2023-02-05T20:08:08.010Z,9.00
2023-02-05T20:10:35.908Z,9.50
2023-02-05T20:13:03.878Z,10.07
2023-02-05T20:15:31.446Z,8.90
2023-02-05T20:17:59.495Z,9.50
2023-02-05T20:20:33.483Z,8.10
2023-02-05T20:23:01.745Z,8.53
2023-02-05T20:25:30.661Z,10.07
2023-02-05T20:27:58.411Z,10.37
2023-02-05T20:30:43.852Z,8.90
2023-02-05T20:33:11.932Z,9.27
2023-02-05T20:35:40.203Z,10.03
2023-02-05T20:38:08.494Z,9.40
2023-02-05T20:40:37.637Z,9.87
2023-02-05T20:43:07.865Z,9.47
2023-02-05T20:45:35.488Z,9.30
2023-02-05T20:48:03.194Z,9.43
2023-02-05T20:50:30.863Z,8.40
2023-02-05T20:53:01.054Z,8.87
2023-02-05T20:55:28.564Z,8.37
2023-02-05T20:57:57.912Z,8.70
2023-02-05T21:00:33.225Z,8.10
2023-02-05T21:03:01.091Z,7.30
2023-02-05T21:05:28.887Z,8.97
2023-02-05T21:07:56.504Z,7.60
2023-02-05T21:10:24.146Z,7.97
2023-02-05T21:12:51.798Z,8.40
2023-02-05T21:15:20.857Z,9.13
2023-02-05T21:17:48.493Z,8.83
2023-02-05T21:20:16.562Z,8.47
2023-02-05T21:22:44.189Z,7.20
2023-02-05T21:25:11.826Z,7.23
2023-02-05T21:27:40.292Z,8.97
2023-02-05T21:30:09.152Z,8.33
2023-02-05T21:32:38.080Z,9.20
2023-02-05T21:35:06.132Z,7.67
2023-02-05T21:37:33.751Z,8.10
2023-02-05T21:40:09.111Z,8.70
2023-02-05T21:42:37.290Z,10.03
2023-02-05T21:45:05.474Z,9.40
2023-02-05T21:47:33.168Z,9.67
2023-02-05T21:50:02.322Z,8.87
2023-02-05T21:52:29.948Z,10.20
2023-02-05T21:54:57.563Z,9.10
2023-02-05T21:57:25.353Z,10.43
2023-02-05T21:59:53.498Z,8.73
2023-02-05T22:02:21.058Z,12.07
2023-02-05T22:04:48.693Z,8.60
2023-02-05T22:07:17.630Z,9.70
2023-02-05T22:09:45.224Z,8.97
2023-02-05T22:12:12.725Z,10.73
2023-02-05T22:14:40.235Z,8.13
2023-02-05T22:17:07.719Z,8.57
2023-02-05T22:19:35.911Z,8.90
2023-02-05T22:22:03.550Z,9.30
2023-02-05T22:24:32.695Z,8.80
2023-02-05T22:27:00.490Z,8.20
2023-02-05T22:29:28.093Z,9.40
2023-02-05T22:31:55.737Z,9.37
2023-02-05T22:34:23.826Z,9.33
2023-02-05T22:36:51.676Z,9.20
2023-02-05T22:39:19.209Z,9.27
2023-02-05T22:41:48.079Z,10.27
2023-02-05T22:44:15.580Z,8.60
2023-02-05T22:46:44.957Z,9.87
2023-02-05T22:49:15.071Z,8.70
2023-02-05T22:51:42.736Z,9.53
2023-02-05T22:54:12.942Z,7.93
2023-02-05T22:56:40.698Z,7.73
2023-02-05T22:59:09.838Z,8.70
2023-02-05T23:01:38.984Z,9.90
2023-02-05T23:04:07.939Z,8.77
2023-02-05T23:06:37.374Z,9.67
2023-02-05T23:09:07.561Z,9.53
2023-02-05T23:11:35.907Z,9.10
2023-02-05T23:14:05.342Z,8.17
2023-02-05T23:16:36.085Z,8.40
2023-02-05T23:19:05.838Z,9.30
2023-02-05T23:21:35.087Z,9.47
2023-02-05T23:24:03.014Z,9.77
2023-02-05T23:26:32.748Z,8.80
2023-02-05T23:29:00.829Z,9.80
2023-02-05T23:31:28.779Z,8.60
2023-02-05T23:33:57.631Z,9.10
2023-02-05T23:36:25.105Z,9.70
2023-02-05T23:38:52.669Z,9.87
2023-02-05T23:41:35.342Z,9.20
2023-02-05T23:44:05.701Z,9.30
2023-02-05T23:46:33.405Z,9.87
2023-02-05T23:49:02.265Z,9.63
2023-02-05T23:51:29.754Z,9.90
2023-02-05T23:53:57.267Z,9.33
2023-02-05T23:56:24.741Z,9.17
2023-02-05T23:58:52.355Z,9.67
